Time;durP1;ratioP1;P1;durP2;ratioP2;P2;SDS_P1;SDS_P2;PMS_P1;PMS_P2;Temp;Humidity;BMP_temperature;BMP_pressure;BME280_temperature;BME280_humidity;BME280_pressure;Samples;Min_cycle;Max_cycle;Signal;HPM_P1;HPM_P2
2024/01/01 00:00:15;;;;;;;49.10;34.95;;;;;;;4.04;100.00;96704.34;1221060;75;2936549;-64
2024/01/01 00:02:48;;;;;;;53.00;35.90;;;;;;;3.92;100.00;96688.25;1221729;75;2913883;-63
2024/01/01 00:05:20;;;;;;;59.60;40.50;;;;;;;3.97;100.00;96687.66;1221837;75;2926873;-63
2024/01/01 00:07:53;;;;;;;47.30;33.45;;;;;;;4.28;100.00;96700.94;1222034;75;2913838;-65
2024/01/01 00:10:26;;;;;;;54.55;35.90;;;;;;;4.30;100.00;96697.81;1223381;75;2918839;-64
2024/01/01 00:12:59;;;;;;;49.60;36.25;;;;;;;4.23;100.00;96710.47;1221618;75;2935065;-66
2024/01/01 00:15:34;;;;;;;49.45;36.05;;;;;;;4.16;100.00;96705.38;1223704;75;2915756;-65
2024/01/01 00:18:08;;;;;;;53.35;38.00;;;;;;;4.17;100.00;96709.56;1221655;75;2926287;-63
2024/01/01 00:20:41;;;;;;;48.55;33.45;;;;;;;4.31;100.00;96710.16;1223282;75;2917377;-66
2024/01/01 00:23:14;;;;;;;42.45;30.80;;;;;;;4.37;100.00;96711.03;1221970;75;2927169;-63
2024/01/01 00:25:46;;;;;;;41.85;28.75;;;;;;;4.47;100.00;96704.34;1222866;75;2923631;-64
2024/01/01 00:28:19;;;;;;;40.95;28.30;;;;;;;4.47;100.00;96713.25;1218093;75;2922974;-64
2024/01/01 00:30:55;;;;;;;33.90;25.00;;;;;;;4.52;100.00;96727.38;1221262;75;2973937;-64
2024/01/01 00:33:28;;;;;;;36.40;24.60;;;;;;;4.41;100.00;96725.91;1218991;75;2944877;-63
2024/01/01 00:36:00;;;;;;;32.55;23.25;;;;;;;4.44;100.00;96727.69;1223608;75;2921783;-62
2024/01/01 00:38:33;;;;;;;34.65;23.45;;;;;;;4.48;100.00;96735.69;1222524;75;2922145;-64
2024/01/01 00:41:06;;;;;;;31.45;21.70;;;;;;;4.47;100.00;96732.22;1224572;75;2917349;-63
2024/01/01 00:43:39;;;;;;;27.20;18.10;;;;;;;4.72;100.00;96738.44;1221770;75;2929792;-63
2024/01/01 00:46:15;;;;;;;15.45;11.45;;;;;;;4.92;100.00;96765.00;1223189;75;2931666;-64
2024/01/01 00:48:48;;;;;;;8.90;6.40;;;;;;;4.97;100.00;96777.19;1220060;75;2927427;-65
2024/01/01 00:51:20;;;;;;;8.05;5.40;;;;;;;4.95;100.00;96776.91;1222679;75;2937930;-63
2024/01/01 00:53:54;;;;;;;5.80;3.90;;;;;;;4.96;100.00;96771.03;1222051;75;2937748;-63
2024/01/01 00:56:27;;;;;;;4.90;3.65;;;;;;;4.91;100.00;96779.78;1222918;75;2928451;-64
2024/01/01 00:58:59;;;;;;;5.35;3.70;;;;;;;4.80;100.00;96790.38;1218053;75;3129903;-67
2024/01/01 01:01:35;;;;;;;4.55;3.25;;;;;;;4.73;100.00;96809.69;1223158;75;2921628;-68
2024/01/01 01:04:08;;;;;;;3.25;2.35;;;;;;;4.74;100.00;96801.09;1219904;75;2924935;-65
2024/01/01 01:06:41;;;;;;;3.35;2.20;;;;;;;4.64;100.00;96826.72;1223186;75;2925403;-67
2024/01/01 01:09:14;;;;;;;1.95;1.55;;;;;;;4.61;100.00;96816.78;1222672;75;2926016;-70
2024/01/01 01:11:46;;;;;;;1.95;1.60;;;;;;;4.64;100.00;96827.50;1222953;75;2933817;-69
2024/01/01 01:14:19;;;;;;;2.25;1.70;;;;;;;4.45;100.00;96834.91;1222859;75;2928560;-66
2024/01/01 01:16:55;;;;;;;1.95;1.40;;;;;;;4.60;100.00;96828.84;1222582;75;2936039;-68
2024/01/01 01:19:28;;;;;;;1.60;1.10;;;;;;;4.44;100.00;96835.34;1222692;75;2927664;-68
2024/01/01 01:22:00;;;;;;;1.55;1.25;;;;;;;4.45;100.00;96834.91;1222438;75;2923413;-69
2024/01/01 01:24:33;;;;;;;1.70;1.15;;;;;;;4.46;100.00;96843.78;1223645;75;2891314;-67
2024/01/01 01:27:06;;;;;;;1.95;1.30;;;;;;;4.48;100.00;96841.38;1222700;75;2921336;-67
2024/01/01 01:29:39;;;;;;;4.55;2.50;;;;;;;4.39;100.00;96854.94;1222254;75;2925169;-67
2024/01/01 01:32:15;;;;;;;1.50;1.10;;;;;;;4.40;100.00;96868.03;1222034;75;2924555;-69
2024/01/01 01:34:48;;;;;;;1.20;1.00;;;;;;;4.37;100.00;96865.47;1223137;75;2941835;-67
2024/01/01 01:37:21;;;;;;;1.50;0.90;;;;;;;4.40;100.00;96869.97;1221311;75;2929718;-66
2024/01/01 01:39:54;;;;;;;1.45;1.00;;;;;;;4.45;100.00;96877.53;1222462;75;2925435;-66
2024/01/01 01:42:27;;;;;;;1.45;1.00;;;;;;;4.52;100.00;96895.41;1221329;75;2923041;-65
2024/01/01 01:45:00;;;;;;;1.60;1.00;;;;;;;4.58;100.00;96902.50;1223788;75;2927509;-67
2024/01/01 01:47:35;;;;;;;1.35;0.90;;;;;;;4.56;100.00;96902.19;1222091;75;2921106;-70
2024/01/01 01:50:11;;;;;;;1.15;1.00;;;;;;;4.58;100.00;96904.44;1223154;75;2922089;-68
2024/01/01 01:52:46;;;;;;;1.25;0.90;;;;;;;4.57;100.00;96908.34;1223669;75;2924519;-65
2024/01/01 01:55:22;;;;;;;1.65;1.10;;;;;;;4.58;100.00;96902.50;1224057;75;2926185;-65
2024/01/01 01:57:55;;;;;;;1.30;1.00;;;;;;;4.54;100.00;96890.28;1218928;75;2988234;-70
2024/01/01 02:00:27;;;;;;;1.10;0.90;;;;;;;4.54;100.00;96884.88;1222549;75;2931697;-69
2024/01/01 02:03:03;;;;;;;0.80;0.80;;;;;;;4.59;100.00;96885.00;1221577;75;2924246;-65
2024/01/01 02:05:36;;;;;;;1.00;0.90;;;;;;;4.57;100.00;96892.88;1223706;75;2920946;-65
2024/01/01 02:08:10;;;;;;;1.60;1.15;;;;;;;4.66;100.00;96898.25;1221167;75;2943323;-63
2024/01/01 02:10:44;;;;;;;1.65;0.80;;;;;;;4.52;100.00;96898.13;1221066;75;3023762;-68
2024/01/01 02:13:34;;;;;;;1.55;1.15;;;;;;;4.65;100.00;96894.03;1222851;68;2926784;-66
2024/01/01 02:16:07;;;;;;;0.70;0.70;;;;;;;4.52;100.00;96892.69;1223725;75;2918982;-66
2024/01/01 02:18:43;;;;;;;0.70;0.70;;;;;;;4.74;100.00;96892.50;1222467;75;2946258;-65
2024/01/01 02:21:16;;;;;;;0.70;0.70;;;;;;;4.78;100.00;96893.13;1224032;75;2916693;-67
2024/01/01 02:23:51;;;;;;;1.45;0.90;;;;;;;4.85;100.00;96888.13;1221522;75;2918222;-65
2024/01/01 02:26:24;;;;;;;1.00;0.80;;;;;;;4.89;100.00;96874.41;1223926;75;2917863;-66
2024/01/01 02:28:57;;;;;;;1.00;0.70;;;;;;;4.77;100.00;96881.53;1221922;75;2923422;-66
2024/01/01 02:31:29;;;;;;;1.00;0.80;;;;;;;4.88;100.00;96879.09;1223005;75;2924669;-65
2024/01/01 02:34:02;;;;;;;0.90;0.75;;;;;;;4.97;100.00;96883.72;1222751;75;2922312;-66
2024/01/01 02:36:40;;;;;;;0.90;0.80;;;;;;;4.84;100.00;96877.75;1224695;75;2917596;-66
2024/01/01 02:39:15;;;;;;;1.10;0.70;;;;;;;4.87;100.00;96865.97;1223825;75;2932835;-64
2024/01/01 02:41:48;;;;;;;0.75;0.70;;;;;;;4.72;100.00;96857.00;1224164;75;2917843;-67
2024/01/01 02:44:21;;;;;;;0.90;0.70;;;;;;;4.96;100.00;96855.09;1223756;75;2920245;-64
2024/01/01 02:46:54;;;;;;;0.50;0.50;;;;;;;4.73;100.00;96853.81;1223254;75;2924858;-69
2024/01/01 02:49:27;;;;;;;0.50;0.50;;;;;;;4.77;100.00;96851.69;1224043;75;2918922;-64
2024/01/01 02:51:59;;;;;;;1.35;0.50;;;;;;;4.83;100.00;96855.28;1222058;75;2925500;-65
2024/01/01 02:54:35;;;;;;;1.35;0.60;;;;;;;4.93;100.00;96857.97;1224541;75;2922743;-65
2024/01/01 02:57:08;;;;;;;0.30;0.30;;;;;;;5.04;100.00;96869.09;1222879;75;2919374;-66
2024/01/01 02:59:41;;;;;;;0.50;0.50;;;;;;;4.88;100.00;96870.19;1224151;75;2925452;-63
2024/01/01 03:02:15;;;;;;;0.45;0.45;;;;;;;4.98;100.00;96879.03;1222677;67;2922361;-66
2024/01/01 03:04:48;;;;;;;0.50;0.50;;;;;;;5.15;100.00;96874.00;1224469;75;2926423;-67
2024/01/01 03:07:21;;;;;;;0.40;0.40;;;;;;;4.90;100.00;96876.66;1222240;75;2926606;-65
2024/01/01 03:09:56;;;;;;;0.90;0.70;;;;;;;4.95;100.00;96878.00;1223888;75;2922048;-65
2024/01/01 03:12:30;;;;;;;0.90;0.80;;;;;;;5.04;100.00;96863.66;1221921;75;2922775;-65
2024/01/01 03:15:03;;;;;;;0.70;0.70;;;;;;;4.75;100.00;96851.41;1224050;75;2925033;-63
2024/01/01 03:17:36;;;;;;;0.90;0.90;;;;;;;4.95;100.00;96859.00;1223321;75;2925141;-64
2024/01/01 03:20:11;;;;;;;0.60;0.60;;;;;;;5.01;100.00;96870.00;1223823;75;2925796;-66
2024/01/01 03:22:45;;;;;;;0.50;0.50;;;;;;;4.85;100.00;96871.84;1224350;75;2856455;-65
2024/01/01 03:25:20;;;;;;;1.75;1.20;;;;;;;4.51;100.00;96875.69;1224447;75;2928169;-64
2024/01/01 03:27:54;;;;;;;1.55;1.15;;;;;;;4.64;100.00;96884.41;1222419;75;2914770;-66
2024/01/01 03:30:27;;;;;;;1.30;0.90;;;;;;;4.73;100.00;96893.72;1224118;75;2921529;-66
2024/01/01 03:33:00;;;;;;;1.90;1.00;;;;;;;4.57;100.00;96905.63;1221921;75;2920397;-65
2024/01/01 03:35:33;;;;;;;2.05;0.90;;;;;;;4.72;100.00;96903.09;1224196;75;2922386;-65
2024/01/01 03:38:07;;;;;;;1.50;1.05;;;;;;;4.80;100.00;96898.84;1223669;75;2925676;-66
2024/01/01 03:40:43;;;;;;;1.30;1.00;;;;;;;4.47;100.00;96894.84;1218484;75;3260381;-65
2024/01/01 03:43:16;;;;;;;2.55;1.10;;;;;;;4.38;100.00;96908.38;1223077;75;2920100;-66
2024/01/01 03:45:49;;;;;;;2.10;1.30;;;;;;;4.31;100.00;96905.97;1224697;75;2920230;-65
2024/01/01 03:48:22;;;;;;;1.35;1.05;;;;;;;4.53;100.00;96899.63;1221963;75;2915171;-67
2024/01/01 03:50:54;;;;;;;1.80;1.25;;;;;;;4.61;100.00;96892.69;1223731;75;2932919;-64
2024/01/01 03:53:27;;;;;;;0.95;0.85;;;;;;;4.55;100.00;96905.38;1222082;75;2919644;-66
2024/01/01 03:56:03;;;;;;;1.50;1.20;;;;;;;4.23;100.00;96926.41;1224478;75;2920537;-65
2024/01/01 03:58:36;;;;;;;1.55;1.20;;;;;;;4.00;100.00;96938.59;1224186;75;2919058;-64
2024/01/01 04:01:15;;;;;;;2.10;1.45;;;;;;;3.98;100.00;96927.47;1224295;75;2923014;-64
2024/01/01 04:03:48;;;;;;;2.90;1.60;;;;;;;4.12;100.00;96924.16;1222664;75;2928600;-67
2024/01/01 04:06:21;;;;;;;3.05;2.25;;;;;;;4.06;100.00;96934.09;1224251;75;2924954;-65
2024/01/01 04:08:54;;;;;;;2.30;1.80;;;;;;;4.10;100.00;96934.69;1223280;75;2920702;-66
2024/01/01 04:11:29;;;;;;;4.20;2.00;;;;;;;4.04;100.00;96944.59;1209026;75;4084597;-66
2024/01/01 04:14:02;;;;;;;2.90;1.80;;;;;;;4.00;100.00;96946.72;1222182;75;2924305;-65
2024/01/01 04:16:35;;;;;;;4.15;2.70;;;;;;;3.84;100.00;96947.72;1224149;75;2918863;-65
2024/01/01 04:19:08;;;;;;;2.55;2.05;;;;;;;3.96;100.00;96954.97;1222096;75;2928622;-67
2024/01/01 04:21:43;;;;;;;6.40;2.25;;;;;;;3.92;100.00;96962.50;1223263;75;2920050;-65
2024/01/01 04:24:15;;;;;;;3.60;2.25;;;;;;;3.88;100.00;96971.97;1223807;75;2937213;-64
2024/01/01 04:26:51;;;;;;;3.80;2.65;;;;;;;3.93;100.00;96980.25;1222581;75;2941289;-65
2024/01/01 04:29:24;;;;;;;3.40;2.35;;;;;;;3.92;100.00;96988.81;1224338;75;2911365;-67
2024/01/01 04:31:57;;;;;;;2.55;1.95;;;;;;;3.94;100.00;96995.28;1223762;75;2923087;-64
2024/01/01 04:34:30;;;;;;;3.10;2.05;;;;;;;3.97;100.00;96983.59;1222666;75;2922936;-66
2024/01/01 04:37:03;;;;;;;3.85;2.05;;;;;;;3.95;100.00;96980.56;1223438;75;2922336;-67
2024/01/01 04:39:35;;;;;;;2.70;2.00;;;;;;;3.99;100.00;96983.13;1224059;75;2944312;-65
2024/01/01 04:42:11;;;;;;;3.55;2.20;;;;;;;3.96;100.00;96994.84;1223187;75;2918357;-68
2024/01/01 04:44:44;;;;;;;3.15;2.20;;;;;;;3.84;100.00;97012.72;1225364;75;2918338;-67
2024/01/01 04:47:17;;;;;;;3.05;2.60;;;;;;;3.84;100.00;97008.03;1222226;75;2916501;-65
2024/01/01 04:49:49;;;;;;;2.95;2.35;;;;;;;3.78;100.00;97004.44;1223479;75;2920397;-67
2024/01/01 04:52:22;;;;;;;2.75;2.30;;;;;;;3.87;100.00;97013.78;1221864;75;2915778;-64
2024/01/01 04:54:59;;;;;;;2.75;2.25;;;;;;;3.71;100.00;97018.22;1223965;75;2927315;-65
2024/01/01 04:57:34;;;;;;;3.85;2.35;;;;;;;3.87;100.00;97003.69;1222764;75;2920543;-65
2024/01/01 05:00:09;;;;;;;3.45;2.25;;;;;;;3.82;100.00;97026.72;1224917;75;2917906;-65
2024/01/01 05:02:42;;;;;;;5.20;2.50;;;;;;;3.70;100.00;97045.75;1223108;75;2919173;-65
2024/01/01 05:05:15;;;;;;;3.55;2.25;;;;;;;3.76;100.00;97050.13;1225128;75;2918244;-68
2024/01/01 05:07:48;;;;;;;3.75;2.70;;;;;;;3.73;100.00;97071.91;1222299;75;2921344;-64
2024/01/01 05:10:21;;;;;;;4.05;2.90;;;;;;;3.72;100.00;97065.00;1223593;75;2920814;-65
2024/01/01 05:12:56;;;;;;;4.70;2.60;;;;;;;3.72;100.00;97082.00;1223384;75;2913313;-66
2024/01/01 05:15:29;;;;;;;4.70;3.15;;;;;;;3.80;100.00;97085.19;1224547;75;2922660;-65
2024/01/01 05:18:02;;;;;;;4.40;2.60;;;;;;;3.74;100.00;97078.84;1222463;75;2916679;-64
2024/01/01 05:20:35;;;;;;;3.85;2.90;;;;;;;3.70;100.00;97087.09;1224259;75;2918702;-65
2024/01/01 05:23:08;;;;;;;4.25;3.10;;;;;;;3.77;100.00;97091.50;1222668;75;2922395;-65
2024/01/01 05:25:41;;;;;;;4.10;2.75;;;;;;;3.72;100.00;97086.66;1225319;75;2916432;-65
2024/01/01 05:28:16;;;;;;;4.05;2.70;;;;;;;3.77;100.00;97091.50;1221973;75;2916001;-66
2024/01/01 05:30:49;;;;;;;4.65;3.00;;;;;;;3.80;100.00;97102.19;1222747;75;2921139;-67
2024/01/01 05:33:22;;;;;;;5.20;3.00;;;;;;;3.82;100.00;97110.63;1222595;75;2910586;-64
2024/01/01 05:35:55;;;;;;;5.15;2.70;;;;;;;3.91;100.00;97112.63;1224663;75;2917859;-64
2024/01/01 05:38:28;;;;;;;4.85;2.70;;;;;;;3.89;100.00;97111.56;1222098;75;2926510;-66
2024/01/01 05:41:00;;;;;;;3.50;2.50;;;;;;;3.91;100.00;97093.66;1223309;75;2913428;-69
2024/01/01 05:43:36;;;;;;;2.65;2.10;;;;;;;4.03;100.00;97084.69;1222915;75;2939620;-65
2024/01/01 05:46:09;;;;;;;3.10;2.20;;;;;;;4.05;100.00;97079.59;1223958;75;2924302;-65
2024/01/01 05:48:42;;;;;;;3.15;1.90;;;;;;;4.15;100.00;97068.78;1221423;75;2914197;-66
2024/01/01 05:51:16;;;;;;;2.75;1.70;;;;;;;4.14;100.00;97054.50;1223565;75;2919787;-64
2024/01/01 05:53:49;;;;;;;2.55;1.70;;;;;;;4.18;100.00;97054.34;1222083;75;2922810;-68
2024/01/01 05:56:22;;;;;;;2.25;1.55;;;;;;;4.16;100.00;97049.38;1224114;75;2918713;-63
2024/01/01 05:58:57;;;;;;;2.65;1.40;;;;;;;4.16;100.00;97046.69;1223372;75;2842062;-63
2024/01/01 06:01:30;;;;;;;2.35;1.40;;;;;;;4.27;100.00;97047.00;1223260;75;2916611;-65
2024/01/01 06:04:03;;;;;;;1.20;1.00;;;;;;;4.30;100.00;97044.59;1222962;75;2923358;-67
2024/01/01 06:06:36;;;;;;;1.10;1.00;;;;;;;4.40;100.00;97046.13;1224164;75;2919360;-66
2024/01/01 06:09:09;;;;;;;1.00;0.65;;;;;;;4.34;100.00;97045.22;1222075;75;2920541;-67
2024/01/01 06:11:41;;;;;;;1.00;0.70;;;;;;;4.49;100.00;97054.25;1222077;75;2934617;-66
2024/01/01 06:14:17;;;;;;;0.80;0.80;;;;;;;4.27;100.00;97051.66;1222247;75;2927231;-65
2024/01/01 06:16:50;;;;;;;0.90;0.65;;;;;;;4.40;100.00;97049.59;1223849;75;2928804;-64
2024/01/01 06:19:23;;;;;;;0.85;0.60;;;;;;;4.48;100.00;97041.94;1222953;75;2922194;-65
2024/01/01 06:21:55;;;;;;;0.70;0.70;;;;;;;4.38;100.00;97043.13;1225035;75;2917334;-65
2024/01/01 06:24:28;;;;;;;0.85;0.80;;;;;;;4.30;100.00;97041.88;1221748;75;2927653;-65
2024/01/01 06:27:01;;;;;;;0.70;0.70;;;;;;;4.12;100.00;97048.03;1224152;75;2912928;-65
2024/01/01 06:29:36;;;;;;;1.90;0.95;;;;;;;3.87;100.00;97073.34;1222150;75;2923850;-65
2024/01/01 06:32:11;;;;;;;1.30;1.00;;;;;;;3.95;100.00;97075.34;1224094;75;2918438;-66
2024/01/01 06:34:45;;;;;;;3.10;1.00;;;;;;;3.74;100.00;97095.09;1222823;75;2913951;-64
2024/01/01 06:37:17;;;;;;;1.10;1.00;;;;;;;3.79;100.00;97111.50;1223616;83;2938666;-65
2024/01/01 06:39:50;;;;;;;1.35;1.20;;;;;;;3.83;100.00;97114.84;1221260;75;2916061;-64
2024/01/01 06:42:23;;;;;;;1.85;1.10;;;;;;;3.83;100.00;97116.81;1224374;75;2916680;-65
2024/01/01 06:45:03;;;;;;;1.50;1.20;;;;;;;3.75;100.00;97121.72;1224032;75;2922577;-67
2024/01/01 06:47:36;;;;;;;4.25;3.85;;;;;;;3.87;100.00;97125.53;1225212;75;2919006;-63
2024/01/01 06:50:10;;;;;;;3.75;3.35;;;;;;;4.00;100.00;97128.91;1222265;75;2926017;-65
2024/01/01 06:52:43;;;;;;;3.05;2.30;;;;;;;3.86;100.00;97134.88;1224677;75;2922529;-64
2024/01/01 06:55:18;;;;;;;3.75;3.45;;;;;;;3.93;100.00;97137.31;1224649;75;2922811;-65
2024/01/01 06:57:51;;;;;;;3.20;2.75;;;;;;;3.98;100.00;97152.22;1223815;75;2927489;-69
2024/01/01 07:00:26;;;;;;;2.75;2.20;;;;;;;3.84;100.00;97153.50;1222951;75;2922466;-67
2024/01/01 07:02:59;;;;;;;2.50;1.80;;;;;;;4.08;100.00;97156.50;1222486;75;2917983;-67
2024/01/01 07:05:33;;;;;;;3.35;1.60;;;;;;;3.70;100.00;97168.28;1223631;75;2914943;-66
2024/01/01 07:08:07;;;;;;;3.50;2.15;;;;;;;3.72;100.00;97171.31;1223103;75;2923783;-65
2024/01/01 07:10:40;;;;;;;2.90;1.30;;;;;;;3.78;100.00;97174.97;1223596;75;2921505;-64
2024/01/01 07:13:13;;;;;;;4.10;2.85;;;;;;;3.89;100.00;97177.28;1222401;75;2918718;-67
2024/01/01 07:15:48;;;;;;;9.60;6.60;;;;;;;3.87;100.00;97195.19;1224697;75;2931959;-64
2024/01/01 07:18:21;;;;;;;10.85;7.70;;;;;;;4.00;100.00;97188.50;1221554;75;2916807;-65
2024/01/01 07:20:54;;;;;;;6.65;5.00;;;;;;;3.93;100.00;97191.47;1224405;75;2921131;-66
2024/01/01 07:23:27;;;;;;;5.55;3.95;;;;;;;3.91;100.00;97195.81;1221789;75;2925550;-64
2024/01/01 07:26:00;;;;;;;3.65;2.30;;;;;;;3.81;100.00;97192.28;1224100;75;2916952;-65
2024/01/01 07:28:33;;;;;;;2.35;1.65;;;;;;;3.93;100.00;97193.44;1221664;75;2914929;-64
2024/01/01 07:31:08;;;;;;;2.10;1.65;;;;;;;3.83;100.00;97198.03;1223001;75;2921194;-66
2024/01/01 07:33:41;;;;;;;2.20;1.50;;;;;;;3.84;100.00;97207.66;1222537;75;2932620;-63
2024/01/01 07:36:15;;;;;;;1.80;1.45;;;;;;;3.77;100.00;97205.94;1223884;75;2915948;-65
2024/01/01 07:38:47;;;;;;;3.60;1.85;;;;;;;3.63;100.00;97215.34;1221668;75;2961640;-65
2024/01/01 07:41:21;;;;;;;2.10;1.25;;;;;;;3.87;100.00;97220.31;1223119;75;2938547;-65
2024/01/01 07:43:54;;;;;;;1.90;1.10;;;;;;;3.95;100.00;97216.16;1223036;75;2914411;-66
2024/01/01 07:46:29;;;;;;;1.10;1.00;;;;;;;4.06;100.00;97215.75;1224454;75;2918866;-63
2024/01/01 07:49:05;;;;;;;0.80;0.70;;;;;;;4.05;100.00;97216.97;1222357;75;2918089;-66
2024/01/01 07:51:38;;;;;;;0.95;0.90;;;;;;;3.91;100.00;97215.53;1224061;75;2929727;-66
2024/01/01 07:54:11;;;;;;;1.60;1.40;;;;;;;3.61;100.00;97219.69;1221412;75;2918551;-64
2024/01/01 07:56:47;;;;;;;1.40;1.10;;;;;;;3.81;100.00;97219.38;1223886;75;2917006;-63
2024/01/01 07:59:20;;;;;;;1.20;1.00;;;;;;;3.89;100.00;97215.19;1221751;75;2922718;-65
2024/01/01 08:01:55;;;;;;;0.60;0.60;;;;;;;3.99;100.00;97224.91;1224126;75;2923582;-64
2024/01/01 08:04:28;;;;;;;0.70;0.70;;;;;;;3.95;100.00;97220.81;1223154;75;2926768;-65
2024/01/01 08:07:01;;;;;;;2.55;1.80;;;;;;;3.87;100.00;97217.59;1224221;75;2915637;-64
2024/01/01 08:09:33;;;;;;;1.95;1.60;;;;;;;3.91;100.00;97214.78;1221588;75;2922665;-66
2024/01/01 08:12:08;;;;;;;2.85;1.50;;;;;;;3.96;100.00;97212.25;1223939;75;2926536;-65
2024/01/01 08:14:41;;;;;;;1.90;1.40;;;;;;;3.99;100.00;97211.38;1221979;75;2927314;-66
2024/01/01 08:17:16;;;;;;;1.65;1.25;;;;;;;3.98;100.00;97211.81;1224406;75;2917882;-64
2024/01/01 08:19:49;;;;;;;1.20;1.10;;;;;;;3.97;100.00;97211.06;1222040;75;2917428;-65
2024/01/01 08:22:22;;;;;;;1.10;1.00;;;;;;;4.26;100.00;97218.91;1224360;75;2914814;-67
2024/01/01 08:24:54;;;;;;;1.45;1.00;;;;;;;4.30;100.00;97224.16;1221960;75;2962553;-66
2024/01/01 08:27:27;;;;;;;1.40;1.10;;;;;;;4.29;100.00;97216.50;1224109;75;2922240;-65
2024/01/01 08:30:00;;;;;;;1.65;1.10;;;;;;;4.47;100.00;97216.56;1220489;75;2942439;-64
2024/01/01 08:32:36;;;;;;;1.05;0.95;;;;;;;4.67;100.00;97222.38;1225695;75;2918678;-62
2024/01/01 08:35:09;;;;;;;2.30;1.50;;;;;;;4.59;100.00;97226.56;1223850;75;2922142;-66
2024/01/01 08:37:43;;;;;;;1.50;1.20;;;;;;;4.55;100.00;97228.66;1225686;75;2918793;-65
2024/01/01 08:40:17;;;;;;;3.55;2.30;;;;;;;5.33;100.00;97230.22;1223420;75;2914708;-64
2024/01/01 08:42:50;;;;;;;2.80;2.05;;;;;;;5.45;100.00;97228.56;1224947;75;2922789;-65
2024/01/01 08:45:23;;;;;;;3.75;3.15;;;;;;;5.17;100.00;97237.88;1223325;75;2917549;-66
2024/01/01 08:47:59;;;;;;;4.10;2.95;;;;;;;5.26;100.00;97246.78;1223550;75;2921901;-67
2024/01/01 08:50:31;;;;;;;2.65;2.15;;;;;;;5.35;100.00;97251.50;1224388;75;2919075;-65
2024/01/01 08:53:04;;;;;;;1.85;1.70;;;;;;;5.69;100.00;97236.88;1224010;75;2919275;-65
2024/01/01 08:55:38;;;;;;;2.05;1.60;;;;;;;6.01;100.00;97244.91;1225271;75;2920413;-65
2024/01/01 08:58:11;;;;;;;3.40;2.25;;;;;;;6.01;100.00;97245.63;1224086;75;2925931;-66
2024/01/01 09:00:43;;;;;;;2.55;1.80;;;;;;;5.63;100.00;97244.13;1225196;75;2928566;-65
2024/01/01 09:03:19;;;;;;;2.90;1.50;;;;;;;5.51;100.00;97255.91;1223913;75;2919956;-66
2024/01/01 09:05:54;;;;;;;2.30;1.80;;;;;;;5.74;100.00;97252.56;1226327;75;2911770;-64
2024/01/01 09:08:28;;;;;;;1.20;1.00;;;;;;;6.07;100.00;97257.41;1223555;75;2926076;-64
2024/01/01 09:11:02;;;;;;;1.00;0.80;;;;;;;6.01;100.00;97253.78;1224606;75;2934374;-64
2024/01/01 09:13:35;;;;;;;1.75;1.25;;;;;;;6.36;100.00;97267.78;1223627;75;2929933;-63
2024/01/01 09:16:08;;;;;;;2.95;1.30;;;;;;;6.53;100.00;97260.03;1224152;75;2918790;-64
2024/01/01 09:18:44;;;;;;;1.45;1.00;;;;;;;6.92;100.00;97267.59;1221882;67;2924464;-65
2024/01/01 09:21:18;;;;;;;2.10;1.40;;;;;;;7.12;100.00;97262.38;1224484;67;2925041;-64
2024/01/01 09:23:51;;;;;;;1.30;1.05;;;;;;;7.28;100.00;97268.63;1222986;75;2933851;-63
2024/01/01 09:26:24;;;;;;;1.70;1.20;;;;;;;7.97;100.00;97273.00;1225195;75;2917119;-67
2024/01/01 09:28:57;;;;;;;2.40;1.60;;;;;;;8.40;100.00;97257.19;1222289;75;2925313;-65
2024/01/01 09:31:29;;;;;;;1.90;1.45;;;;;;;8.09;100.00;97252.91;1224453;75;2925578;-65
2024/01/01 09:34:06;;;;;;;1.95;1.55;;;;;;;8.86;100.00;97248.47;1223188;75;2919460;-62
2024/01/01 09:36:41;;;;;;;2.60;1.75;;;;;;;9.81;100.00;97248.19;1224776;75;2924015;-66
2024/01/01 09:39:14;;;;;;;3.75;1.45;;;;;;;10.15;90.39;97235.63;1222745;75;2924299;-66
2024/01/01 09:41:47;;;;;;;5.40;3.85;;;;;;;11.15;87.41;97236.16;1224107;75;2930032;-67
2024/01/01 09:44:20;;;;;;;8.15;6.05;;;;;;;11.18;81.09;97240.63;1222598;75;2921318;-65
2024/01/01 09:46:53;;;;;;;6.45;5.10;;;;;;;11.00;90.19;97245.28;1224987;75;2920090;-64
2024/01/01 09:49:28;;;;;;;3.75;3.15;;;;;;;10.47;81.10;97243.91;1222965;75;2917226;-67
2024/01/01 09:52:01;;;;;;;4.05;3.05;;;;;;;9.88;86.69;97258.69;1224212;75;2931253;-62
2024/01/01 09:54:36;;;;;;;3.60;2.90;;;;;;;10.59;88.79;97253.69;1222496;75;2915642;-65
2024/01/01 09:57:09;;;;;;;3.55;2.70;;;;;;;10.08;85.15;97249.72;1224617;75;2926680;-64
2024/01/01 09:59:42;;;;;;;3.35;2.50;;;;;;;10.31;83.00;97247.22;1222244;75;2921551;-65
2024/01/01 10:02:15;;;;;;;2.70;1.60;;;;;;;10.93;79.98;97253.94;1224177;75;2922133;-66
2024/01/01 10:04:51;;;;;;;1.95;1.20;;;;;;;11.13;75.48;97253.06;1221762;75;2922895;-63
2024/01/01 10:07:30;;;;;;;1.45;0.80;;;;;;;11.02;84.73;97253.00;1223759;75;2926191;-66
2024/01/01 10:10:03;;;;;;;1.35;1.00;;;;;;;9.81;83.13;97256.38;1221312;75;2935079;-66
2024/01/01 10:12:36;;;;;;;1.45;1.00;;;;;;;9.33;93.29;97245.88;1225197;75;2923177;-64
2024/01/01 10:15:09;;;;;;;1.10;0.80;;;;;;;10.02;92.31;97246.91;1222408;75;2936979;-65
2024/01/01 10:17:42;;;;;;;0.65;0.65;;;;;;;10.13;94.71;97249.03;1225089;75;2919228;-64
2024/01/01 10:20:21;;;;;;;0.60;0.60;;;;;;;9.11;90.05;97249.81;1221647;75;2929422;-64
2024/01/01 10:22:54;;;;;;;0.90;0.60;;;;;;;9.39;100.00;97252.16;1223294;75;2915299;-67
2024/01/01 10:25:30;;;;;;;1.25;0.85;;;;;;;11.21;89.09;97239.69;1222494;75;2926374;-63
2024/01/01 10:28:05;;;;;;;0.50;0.50;;;;;;;14.83;68.33;97242.13;1222594;75;2917924;-64
2024/01/01 10:30:38;;;;;;;0.50;0.50;;;;;;;15.71;66.80;97246.50;1222138;75;2920145;-64
2024/01/01 10:33:11;;;;;;;0.90;0.70;;;;;;;16.14;62.08;97248.47;1220750;75;2938668;-64
2024/01/01 10:35:47;;;;;;;0.65;0.60;;;;;;;17.21;55.87;97241.22;1224523;75;2919120;-64
2024/01/01 10:38:20;;;;;;;1.00;0.80;;;;;;;16.22;59.97;97247.88;1221734;75;2926085;-67
2024/01/01 10:40:56;;;;;;;0.75;0.70;;;;;;;15.28;63.68;97246.47;1223064;75;2927863;-64
2024/01/01 10:43:29;;;;;;;0.80;0.80;;;;;;;16.41;61.30;97240.28;1222131;75;2923997;-65
2024/01/01 10:46:06;;;;;;;0.60;0.60;;;;;;;15.97;60.95;97242.44;1224722;75;2915048;-65
2024/01/01 10:48:40;;;;;;;1.25;0.95;;;;;;;15.79;57.54;97248.69;1221605;75;2930582;-67
2024/01/01 10:51:45;;;;;;;0.50;0.50;;;;;;;16.80;53.79;97253.50;1222982;75;2957111;-65
2024/01/01 10:55:16;;;;;;;2.95;1.00;;;;;;;14.53;59.66;97253.13;1223895;75;2920536;-64
2024/01/01 10:58:14;;;;;;;2.75;1.15;;;;;;;14.44;60.21;97250.69;1224332;75;2920777;-63
2024/01/01 11:01:04;;;;;;;1.25;0.80;;;;;;;15.57;58.73;97244.16;1225036;75;2925913;-67
2024/01/01 11:03:38;;;;;;;1.25;0.85;;;;;;;15.52;57.10;97240.94;1224182;75;2919724;-65
2024/01/01 11:06:27;;;;;;;0.65;0.60;;;;;;;16.39;56.81;97229.03;1225499;75;2917427;-63
2024/01/01 11:09:36;;;;;;;0.80;0.70;;;;;;;16.82;56.68;97228.84;1223358;75;2915643;-64
2024/01/01 11:12:09;;;;;;;;;;;;;;;18.83;57.09;97234.78;1226128;75;2925074;-64
2024/01/01 11:14:44;;;;;;;1.20;0.70;;;;;;;16.72;53.15;97230.50;1222876;75;2930233;-67
2024/01/01 11:17:28;;;;;;;0.90;0.70;;;;;;;16.30;54.49;97230.16;1224436;75;2923992;-64
2024/01/01 11:20:02;;;;;;;2.20;1.70;;;;;;;17.20;53.57;97233.47;1221614;75;2917914;-66
2024/01/01 11:22:39;;;;;;;1.10;0.90;;;;;;;19.00;52.53;97237.13;1224578;75;2921881;-66
2024/01/01 11:25:34;;;;;;;0.95;0.85;;;;;;;17.71;55.62;97233.25;1223639;75;2927217;-66
2024/01/01 11:28:07;;;;;;;1.45;1.00;;;;;;;18.09;51.69;97239.25;1222516;75;2920729;-66
2024/01/01 11:30:44;;;;;;;0.85;0.85;;;;;;;17.02;57.31;97241.31;1223298;75;2921049;-65
2024/01/01 11:33:17;;;;;;;0.85;0.70;;;;;;;17.29;56.73;97246.13;1222614;75;2921193;-65
2024/01/01 11:35:50;;;;;;;0.95;0.80;;;;;;;17.05;56.16;97231.22;1223945;75;2954955;-66
2024/01/01 11:38:23;;;;;;;0.65;0.65;;;;;;;17.71;54.07;97227.69;1223017;75;2915997;-64
2024/01/01 11:41:01;;;;;;;1.00;0.70;;;;;;;17.36;56.40;97232.41;1223814;75;2918131;-66
2024/01/01 11:43:34;;;;;;;0.70;0.70;;;;;;;18.92;52.92;97228.78;1222990;75;2923007;-64
2024/01/01 11:46:09;;;;;;;1.50;0.75;;;;;;;17.68;49.58;97235.06;1225521;75;2919774;-64
2024/01/01 11:48:42;;;;;;;0.90;0.80;;;;;;;16.45;53.70;97223.41;1222879;75;2915723;-66